Terminal Aerodrome Forecast
Issued by NWS

Home | Current Version | Previous Version | Text Only | Print | Product List | Glossary On
Versions: 1 2 3 4 5 6 7 8 9 10 11 12 13 14 15 16
000
FTUS42 KFFC 252320
TAFRYY
TAF
KRYY 252320Z 2600/2624 21010G16KT P6SM VCSH SCT035 BKN050
      TEMPO 2600/2601 VRB15G30KT 3SM TSRA BKN020CB
     FM260200 23008KT P6SM BKN040
     FM261000 24008KT 5SM BR BKN012 BKN035
     FM261300 28010KT P6SM BKN020
     FM261600 29014G24KT P6SM SCT050=

USA.gov is the U.S. government's official web portal to all federal, state and local government web resources and services.